Time;durP1;ratioP1;P1;durP2;ratioP2;P2;SDS_P1;SDS_P2;PMS_P1;PMS_P2;Temp;Humidity;BMP_temperature;BMP_pressure;BME280_temperature;BME280_humidity;BME280_pressure;Samples;Min_cycle;Max_cycle;Signal;HPM_P1;HPM_P2
2022/01/26 00:06:38;;;;;;;47.5;57;;;;;;;1.7;84.4;99750;;;;
2022/01/26 00:16:40;;;;;;;47.5;57;;;;;;;1.7;84.4;99740;;;;
2022/01/26 00:27:50;;;;;;;47.5;56.1;;;;;;;1.7;84.4;99740;;;;
2022/01/26 00:38:44;;;;;;;47.5;56.1;;;;;;;1.7;84.5;99740;;;;
2022/01/26 00:47:38;;;;;;;47.5;56.1;;;;;;;1.7;84.3;99750;;;;
2022/01/26 00:58:38;;;;;;;48.4;54.7;;;;;;;1.8;84.2;99750;;;;
2022/01/26 01:08:40;;;;;;;48.4;54.7;;;;;;;1.7;84.2;99740;;;;
2022/01/26 01:18:44;;;;;;;48.4;54.7;;;;;;;1.7;84.4;99750;;;;
2022/01/26 01:29:42;;;;;;;44.8;53.5;;;;;;;1.7;84.4;99740;;;;
2022/01/26 01:39:38;;;;;;;44.8;53.5;;;;;;;1.6;84.4;99730;;;;
2022/01/26 01:50:41;;;;;;;44.8;53.5;;;;;;;1.6;84.6;99710;;;;
2022/01/26 02:00:38;;;;;;;46.2;55.2;;;;;;;1.6;84.5;99720;;;;
2022/01/26 02:10:39;;;;;;;46.2;55.2;;;;;;;1.7;84.4;99700;;;;
2022/01/26 02:22:05;;;;;;;46.2;55.2;;;;;;;1.7;84.4;99700;;;;
2022/01/26 02:52:02;;;;;;;43.2;49.9;;;;;;;1.7;84.3;99690;;;;
2022/01/26 03:01:47;;;;;;;37.9;44.7;;;;;;;1.7;84.4;99690;;;;
2022/01/26 03:12:45;;;;;;;37.9;44.7;;;;;;;1.7;84.2;99690;;;;
2022/01/26 03:33:55;;;;;;;33.8;37.6;;;;;;;1.7;84.1;99690;;;;
2022/01/26 03:43:38;;;;;;;33.8;37.6;;;;;;;1.7;84.2;99680;;;;
2022/01/26 03:54:38;;;;;;;37.9;44.6;;;;;;;1.7;84.3;99670;;;;
2022/01/26 04:04:45;;;;;;;37.9;44.6;;;;;;;1.8;84.2;99670;;;;
2022/01/26 04:15:38;;;;;;;37.9;44.6;;;;;;;1.8;84;99680;;;;
2022/01/26 04:26:44;;;;;;;43.4;53.4;;;;;;;1.8;84.1;99680;;;;
2022/01/26 04:36:44;;;;;;;43.4;53.4;;;;;;;1.7;84;99680;;;;
2022/01/26 04:46:38;;;;;;;43.4;53.4;;;;;;;1.7;84;99680;;;;
2022/01/26 04:56:38;;;;;;;46.7;54.4;;;;;;;1.8;84;99670;;;;
2022/01/26 05:07:38;;;;;;;46.7;54.4;;;;;;;1.7;84.2;99670;;;;
2022/01/26 05:17:40;;;;;;;46.7;54.4;;;;;;;1.7;84.3;99670;;;;
2022/01/26 05:28:38;;;;;;;43.4;49.6;;;;;;;1.6;84.5;99660;;;;
2022/01/26 05:38:38;;;;;;;43.4;49.6;;;;;;;1.6;84.6;99650;;;;
2022/01/26 05:49:38;;;;;;;43.4;49.6;;;;;;;1.6;84.7;99640;;;;
2022/01/26 05:59:38;;;;;;;47.2;58.7;;;;;;;1.6;84.8;99640;;;;
2022/01/26 06:09:38;;;;;;;47.2;58.7;;;;;;;1.6;84.5;99630;;;;
2022/01/26 06:19:38;;;;;;;47.2;58.7;;;;;;;1.6;84.6;99640;;;;
2022/01/26 06:30:38;;;;;;;44;54.2;;;;;;;1.6;84.6;99640;;;;
2022/01/26 06:40:38;;;;;;;44;54.2;;;;;;;1.7;84.6;99630;;;;
2022/01/26 06:50:38;;;;;;;44;54.2;;;;;;;1.7;84.8;99650;;;;
2022/01/26 07:00:38;;;;;;;46;60.5;;;;;;;1.7;84.8;99640;;;;
2022/01/26 07:11:38;;;;;;;46;60.5;;;;;;;1.7;84.6;99640;;;;
2022/01/26 07:22:38;;;;;;;39.1;46;;;;;;;1.8;84.6;99640;;;;
2022/01/26 07:33:39;;;;;;;39.1;46;;;;;;;1.8;84.4;99630;;;;
2022/01/26 07:44:38;;;;;;;39.1;46;;;;;;;1.9;84.4;99640;;;;
2022/01/26 07:54:38;;;;;;;38.4;43.9;;;;;;;2;84.1;99640;;;;
2022/01/26 08:04:38;;;;;;;38.4;43.9;;;;;;;2.1;83.6;99640;;;;
2022/01/26 08:15:38;;;;;;;38.4;43.9;;;;;;;2.1;83.2;99630;;;;
2022/01/26 08:25:38;;;;;;;28;31.6;;;;;;;2.2;82.9;99630;;;;
2022/01/26 08:35:38;;;;;;;28;31.6;;;;;;;2.2;82.8;99630;;;;
2022/01/26 08:46:38;;;;;;;28;31.6;;;;;;;2.3;82.9;99640;;;;
2022/01/26 08:56:38;;;;;;;28.2;34.3;;;;;;;2.3;82.8;99640;;;;
2022/01/26 09:07:43;;;;;;;28.2;34.3;;;;;;;2.2;83.1;99650;;;;
2022/01/26 09:17:38;;;;;;;28.2;34.3;;;;;;;2.4;82.7;99660;;;;
2022/01/26 09:28:38;;;;;;;33;36.8;;;;;;;2.5;82.5;99650;;;;
2022/01/26 09:39:38;;;;;;;33;36.8;;;;;;;2.7;81.9;99660;;;;
2022/01/26 09:49:38;;;;;;;33;36.8;;;;;;;2.9;81.3;99660;;;;
2022/01/26 09:59:38;;;;;;;34.8;38.7;;;;;;;2.8;81.1;99660;;;;
2022/01/26 10:21:38;;;;;;;34.8;38.7;;;;;;;2.6;81.6;99650;;;;
2022/01/26 10:31:39;;;;;;;37.6;43.6;;;;;;;2.6;82.1;99630;;;;
2022/01/26 10:42:38;;;;;;;37.6;43.6;;;;;;;2.7;81.9;99620;;;;
2022/01/26 10:52:40;;;;;;;39;47.6;;;;;;;2.7;81.9;99620;;;;
2022/01/26 11:02:40;;;;;;;39;47.6;;;;;;;2.8;82;99600;;;;
2022/01/26 11:13:39;;;;;;;39;47.6;;;;;;;2.7;82;99600;;;;
2022/01/26 11:23:40;;;;;;;37.5;49.5;;;;;;;2.8;81.9;99600;;;;
2022/01/26 11:33:38;;;;;;;37.5;49.5;;;;;;;2.7;82.2;99590;;;;
2022/01/26 11:45:10;;;;;;;37.5;49.5;;;;;;;2.7;82.3;99580;;;;
2022/01/26 11:55:38;;;;;;;36.3;43.5;;;;;;;2.7;82.3;99570;;;;
2022/01/26 12:06:42;;;;;;;36.3;43.5;;;;;;;2.7;82.2;99560;;;;
2022/01/26 12:16:41;;;;;;;36.3;43.5;;;;;;;2.8;81.9;99560;;;;
2022/01/26 12:38:43;;;;;;;36.7;43.6;;;;;;;2.8;81.8;99540;;;;
2022/01/26 12:48:40;;;;;;;36.7;43.6;;;;;;;2.8;81.8;99530;;;;
2022/01/26 12:58:38;;;;;;;36.4;40.8;;;;;;;2.8;82;99510;;;;
2022/01/26 13:09:38;;;;;;;36.4;40.8;;;;;;;2.7;82.2;99500;;;;
2022/01/26 13:20:52;;;;;;;36.4;40.8;;;;;;;2.8;82;99500;;;;
2022/01/26 13:32:10;;;;;;;38.8;43.2;;;;;;;2.6;82.4;99500;;;;
2022/01/26 13:43:13;;;;;;;38.8;43.2;;;;;;;2.7;82.3;99500;;;;
2022/01/26 13:53:49;;;;;;;33;37.6;;;;;;;2.6;82.5;99500;;;;
2022/01/26 14:03:38;;;;;;;33;37.6;;;;;;;2.6;82.5;99500;;;;
2022/01/26 14:14:43;;;;;;;33;37.6;;;;;;;2.4;82.9;99510;;;;
2022/01/26 14:24:52;;;;;;;32.2;38.4;;;;;;;2.4;82.9;99510;;;;
2022/01/26 14:35:06;;;;;;;32.2;38.4;;;;;;;2.5;82.9;99510;;;;
2022/01/26 14:56:00;;;;;;;36.5;41.4;;;;;;;2.3;83.3;99510;;;;
2022/01/26 15:48:47;;;;;;;34.7;38.7;;;;;;;2.1;84;99510;;;;
2022/01/26 16:19:58;;;;;;;34.9;39.4;;;;;;;2.1;84.2;99540;;;;
2022/01/26 18:15:24;;;;;;;33.7;37.5;;;;;;;2;84.5;99490;;;;
2022/01/26 18:26:20;;;;;;;37.1;41.4;;;;;;;2.1;84.5;99480;;;;
2022/01/26 18:49:11;;;;;;;37.1;41.4;;;;;;;2;84.3;99490;;;;
2022/01/26 18:56:41;;;;;;;54.8;61.8;;;;;;;2.1;84.3;99480;;;;
2022/01/26 19:07:39;;;;;;;54.8;61.8;;;;;;;2.1;84.2;99480;;;;
2022/01/26 19:17:44;;;;;;;54.8;61.8;;;;;;;2.1;84;99480;;;;
2022/01/26 19:28:43;;;;;;;45.3;52.1;;;;;;;2.1;84;99470;;;;
2022/01/26 19:50:48;;;;;;;45.3;52.1;;;;;;;2.1;84;99450;;;;
2022/01/26 20:00:43;;;;;;;46.4;52.7;;;;;;;2;84;99450;;;;
2022/01/26 20:10:44;;;;;;;46.4;52.7;;;;;;;2;83.4;99440;;;;
2022/01/26 20:20:38;;;;;;;41.5;48.4;;;;;;;2;83.4;99430;;;;
2022/01/26 20:30:43;;;;;;;41.5;48.4;;;;;;;2;83.2;99430;;;;
2022/01/26 20:40:38;;;;;;;41.5;48.4;;;;;;;2.1;83.4;99440;;;;
2022/01/26 20:50:38;;;;;;;45.7;51.3;;;;;;;2;83.8;99440;;;;
2022/01/26 21:01:39;;;;;;;45.7;51.3;;;;;;;2.1;83.7;99450;;;;
2022/01/26 21:11:39;;;;;;;45.7;51.3;;;;;;;2;83.1;99440;;;;
2022/01/26 21:22:38;;;;;;;44.8;50.9;;;;;;;2;82.6;99450;;;;
2022/01/26 21:32:39;;;;;;;44.8;50.9;;;;;;;1.9;82.7;99430;;;;
2022/01/26 21:42:38;;;;;;;44.8;50.9;;;;;;;2;82.4;99440;;;;
2022/01/26 21:52:39;;;;;;;42.8;47.8;;;;;;;2;82.1;99430;;;;
2022/01/26 22:03:39;;;;;;;42.8;47.8;;;;;;;1.9;81.8;99420;;;;
2022/01/26 22:13:39;;;;;;;42.8;47.8;;;;;;;1.9;81.9;99430;;;;
2022/01/26 22:24:38;;;;;;;44.4;52.5;;;;;;;1.9;81.6;99420;;;;
2022/01/26 22:35:38;;;;;;;44.4;52.5;;;;;;;1.9;81.4;99420;;;;
2022/01/26 22:45:39;;;;;;;44.4;52.5;;;;;;;1.8;81.6;99420;;;;
2022/01/26 22:56:39;;;;;;;35.7;42.1;;;;;;;1.8;81.5;99410;;;;
2022/01/26 23:07:38;;;;;;;35.7;42.1;;;;;;;1.7;81.9;99400;;;;
2022/01/26 23:18:39;;;;;;;35.7;42.1;;;;;;;1.6;82.3;99390;;;;
2022/01/26 23:28:47;;;;;;;32.4;38.1;;;;;;;1.5;83.1;99380;;;;
2022/01/26 23:39:49;;;;;;;32.4;38.1;;;;;;;1.4;83.5;99370;;;;
